sensor_id;sensor_type;location;lat;lon;timestamp;P1;durP1;ratioP1;P2;durP2;ratioP2
15516;SDS011;7860;52.030;5.572;2022-12-18T00:03:14;69.86;;;34.93;;
15516;SDS011;7860;52.030;5.572;2022-12-18T00:03:15;74.57;;;36.16;;
15516;SDS011;7860;52.030;5.572;2022-12-18T00:03:15;72.82;;;35.46;;
15516;SDS011;7860;52.030;5.572;2022-12-18T00:03:55;71.04;;;35.25;;
15516;SDS011;7860;52.030;5.572;2022-12-18T00:04:55;66.03;;;34.03;;
15516;SDS011;7860;52.030;5.572;2022-12-18T00:05:56;71.83;;;35.19;;
15516;SDS011;7860;52.030;5.572;2022-12-18T00:06:56;77.54;;;35.21;;
15516;SDS011;7860;52.030;5.572;2022-12-18T00:07:56;70.34;;;35.33;;
15516;SDS011;7860;52.030;5.572;2022-12-18T00:08:58;70.91;;;35.36;;
15516;SDS011;7860;52.030;5.572;2022-12-18T00:09:58;68.19;;;33.84;;
15516;SDS011;7860;52.030;5.572;2022-12-18T00:11:03;68.75;;;35.05;;
15516;SDS011;7860;52.030;5.572;2022-12-18T00:12:00;69.47;;;36.44;;
15516;SDS011;7860;52.030;5.572;2022-12-18T00:13:01;73.54;;;35.44;;
15516;SDS011;7860;52.030;5.572;2022-12-18T00:14:02;68.65;;;34.23;;
15516;SDS011;7860;52.030;5.572;2022-12-18T00:15:03;66.81;;;34.41;;
15516;SDS011;7860;52.030;5.572;2022-12-18T00:16:04;75.27;;;36.66;;
15516;SDS011;7860;52.030;5.572;2022-12-18T00:17:03;74.24;;;36.88;;
15516;SDS011;7860;52.030;5.572;2022-12-18T00:18:04;69.30;;;35.44;;
15516;SDS011;7860;52.030;5.572;2022-12-18T00:19:05;70.47;;;35.19;;
15516;SDS011;7860;52.030;5.572;2022-12-18T00:20:07;73.78;;;36.81;;
15516;SDS011;7860;52.030;5.572;2022-12-18T00:21:07;80.83;;;37.83;;
15516;SDS011;7860;52.030;5.572;2022-12-18T00:22:07;80.75;;;38.15;;
15516;SDS011;7860;52.030;5.572;2022-12-18T00:23:08;77.95;;;37.13;;
15516;SDS011;7860;52.030;5.572;2022-12-18T00:24:09;76.27;;;37.86;;
15516;SDS011;7860;52.030;5.572;2022-12-18T00:25:09;77.74;;;37.72;;
15516;SDS011;7860;52.030;5.572;2022-12-18T00:26:12;78.08;;;38.33;;
15516;SDS011;7860;52.030;5.572;2022-12-18T00:27:11;77.63;;;37.09;;
15516;SDS011;7860;52.030;5.572;2022-12-18T00:28:12;78.93;;;37.03;;
15516;SDS011;7860;52.030;5.572;2022-12-18T00:29:13;79.09;;;37.98;;
15516;SDS011;7860;52.030;5.572;2022-12-18T00:30:14;77.45;;;37.28;;
15516;SDS011;7860;52.030;5.572;2022-12-18T00:31:16;74.52;;;36.96;;
15516;SDS011;7860;52.030;5.572;2022-12-18T00:32:16;79.43;;;37.80;;
15516;SDS011;7860;52.030;5.572;2022-12-18T00:33:16;84.35;;;38.93;;
15516;SDS011;7860;52.030;5.572;2022-12-18T00:34:17;77.22;;;37.55;;
15516;SDS011;7860;52.030;5.572;2022-12-18T00:35:18;83.30;;;38.40;;
15516;SDS011;7860;52.030;5.572;2022-12-18T00:36:20;81.60;;;38.62;;
15516;SDS011;7860;52.030;5.572;2022-12-18T00:37:20;78.95;;;37.23;;
15516;SDS011;7860;52.030;5.572;2022-12-18T00:38:21;80.02;;;38.00;;
15516;SDS011;7860;52.030;5.572;2022-12-18T00:39:22;79.90;;;37.83;;
15516;SDS011;7860;52.030;5.572;2022-12-18T00:40:23;74.08;;;36.74;;
15516;SDS011;7860;52.030;5.572;2022-12-18T00:41:24;77.09;;;37.50;;
15516;SDS011;7860;52.030;5.572;2022-12-18T00:42:25;73.12;;;36.69;;
15516;SDS011;7860;52.030;5.572;2022-12-18T00:43:25;79.05;;;38.05;;
15516;SDS011;7860;52.030;5.572;2022-12-18T00:44:26;82.15;;;38.01;;
15516;SDS011;7860;52.030;5.572;2022-12-18T00:45:28;80.39;;;38.29;;
15516;SDS011;7860;52.030;5.572;2022-12-18T00:46:28;80.10;;;38.60;;
15516;SDS011;7860;52.030;5.572;2022-12-18T00:47:29;78.03;;;37.61;;
15516;SDS011;7860;52.030;5.572;2022-12-18T00:48:30;80.35;;;36.50;;
15516;SDS011;7860;52.030;5.572;2022-12-18T00:49:31;76.85;;;37.28;;
15516;SDS011;7860;52.030;5.572;2022-12-18T00:50:32;76.26;;;37.42;;
15516;SDS011;7860;52.030;5.572;2022-12-18T00:51:32;82.44;;;39.42;;
15516;SDS011;7860;52.030;5.572;2022-12-18T00:52:33;76.96;;;37.54;;
15516;SDS011;7860;52.030;5.572;2022-12-18T00:53:34;83.33;;;38.54;;
15516;SDS011;7860;52.030;5.572;2022-12-18T00:54:35;79.61;;;37.67;;
15516;SDS011;7860;52.030;5.572;2022-12-18T00:55:36;78.04;;;37.94;;
15516;SDS011;7860;52.030;5.572;2022-12-18T00:56:37;78.32;;;38.38;;
15516;SDS011;7860;52.030;5.572;2022-12-18T00:57:37;78.69;;;37.52;;
15516;SDS011;7860;52.030;5.572;2022-12-18T00:58:38;78.20;;;36.63;;
15516;SDS011;7860;52.030;5.572;2022-12-18T00:59:38;77.42;;;37.35;;
15516;SDS011;7860;52.030;5.572;2022-12-18T01:00:39;75.44;;;37.38;;
15516;SDS011;7860;52.030;5.572;2022-12-18T01:01:40;73.93;;;36.97;;
15516;SDS011;7860;52.030;5.572;2022-12-18T01:02:41;74.39;;;36.56;;
15516;SDS011;7860;52.030;5.572;2022-12-18T01:03:42;74.04;;;36.13;;
15516;SDS011;7860;52.030;5.572;2022-12-18T01:04:43;74.64;;;36.53;;
15516;SDS011;7860;52.030;5.572;2022-12-18T01:05:44;77.41;;;37.46;;
15516;SDS011;7860;52.030;5.572;2022-12-18T01:06:45;71.56;;;36.59;;
15516;SDS011;7860;52.030;5.572;2022-12-18T01:07:46;72.72;;;36.33;;
15516;SDS011;7860;52.030;5.572;2022-12-18T01:08:46;76.62;;;36.60;;
15516;SDS011;7860;52.030;5.572;2022-12-18T01:09:47;77.59;;;36.82;;
15516;SDS011;7860;52.030;5.572;2022-12-18T01:10:48;73.79;;;36.78;;
15516;SDS011;7860;52.030;5.572;2022-12-18T01:11:49;73.11;;;36.80;;
15516;SDS011;7860;52.030;5.572;2022-12-18T01:12:50;73.76;;;37.18;;
15516;SDS011;7860;52.030;5.572;2022-12-18T01:13:51;72.80;;;36.90;;
15516;SDS011;7860;52.030;5.572;2022-12-18T01:14:52;71.84;;;36.43;;
15516;SDS011;7860;52.030;5.572;2022-12-18T01:15:53;72.16;;;37.58;;
15516;SDS011;7860;52.030;5.572;2022-12-18T01:16:54;72.18;;;36.53;;
15516;SDS011;7860;52.030;5.572;2022-12-18T01:17:55;72.24;;;36.28;;
15516;SDS011;7860;52.030;5.572;2022-12-18T01:18:55;70.27;;;35.79;;
15516;SDS011;7860;52.030;5.572;2022-12-18T01:19:56;68.16;;;34.63;;
15516;SDS011;7860;52.030;5.572;2022-12-18T01:20:57;70.43;;;35.76;;
15516;SDS011;7860;52.030;5.572;2022-12-18T01:21:57;72.79;;;36.13;;
15516;SDS011;7860;52.030;5.572;2022-12-18T01:22:58;72.53;;;36.06;;
15516;SDS011;7860;52.030;5.572;2022-12-18T01:23:59;72.36;;;35.89;;
15516;SDS011;7860;52.030;5.572;2022-12-18T01:24:59;72.10;;;36.33;;
15516;SDS011;7860;52.030;5.572;2022-12-18T01:26:03;70.19;;;35.29;;
15516;SDS011;7860;52.030;5.572;2022-12-18T01:27:00;67.64;;;34.71;;
15516;SDS011;7860;52.030;5.572;2022-12-18T01:28:00;68.57;;;35.28;;
15516;SDS011;7860;52.030;5.572;2022-12-18T01:29:01;69.98;;;35.06;;
15516;SDS011;7860;52.030;5.572;2022-12-18T01:30:06;66.34;;;34.63;;
15516;SDS011;7860;52.030;5.572;2022-12-18T01:31:11;63.98;;;33.42;;
15516;SDS011;7860;52.030;5.572;2022-12-18T01:32:03;64.72;;;34.13;;
15516;SDS011;7860;52.030;5.572;2022-12-18T01:33:04;66.62;;;34.11;;
15516;SDS011;7860;52.030;5.572;2022-12-18T01:34:05;66.93;;;34.93;;
15516;SDS011;7860;52.030;5.572;2022-12-18T01:35:06;66.14;;;33.78;;
15516;SDS011;7860;52.030;5.572;2022-12-18T01:36:07;64.31;;;33.97;;
15516;SDS011;7860;52.030;5.572;2022-12-18T01:37:07;62.07;;;34.58;;
15516;SDS011;7860;52.030;5.572;2022-12-18T01:38:08;62.49;;;33.65;;
15516;SDS011;7860;52.030;5.572;2022-12-18T01:39:10;65.33;;;34.44;;
15516;SDS011;7860;52.030;5.572;2022-12-18T01:40:10;64.32;;;34.16;;
15516;SDS011;7860;52.030;5.572;2022-12-18T01:41:10;59.99;;;33.38;;
15516;SDS011;7860;52.030;5.572;2022-12-18T01:42:11;60.53;;;33.09;;
15516;SDS011;7860;52.030;5.572;2022-12-18T01:43:12;60.82;;;32.76;;
15516;SDS011;7860;52.030;5.572;2022-12-18T01:44:46;64.30;;;34.14;;
15516;SDS011;7860;52.030;5.572;2022-12-18T01:45:22;64.01;;;34.47;;
15516;SDS011;7860;52.030;5.572;2022-12-18T01:46:13;63.98;;;34.45;;
15516;SDS011;7860;52.030;5.572;2022-12-18T01:47:14;63.30;;;33.98;;
15516;SDS011;7860;52.030;5.572;2022-12-18T01:48:15;65.84;;;34.32;;
15516;SDS011;7860;52.030;5.572;2022-12-18T01:49:16;63.82;;;34.59;;
15516;SDS011;7860;52.030;5.572;2022-12-18T01:50:18;61.52;;;33.85;;
15516;SDS011;7860;52.030;5.572;2022-12-18T01:51:21;61.18;;;34.02;;
15516;SDS011;7860;52.030;5.572;2022-12-18T01:52:19;60.44;;;32.31;;
15516;SDS011;7860;52.030;5.572;2022-12-18T01:53:21;61.70;;;32.37;;
15516;SDS011;7860;52.030;5.572;2022-12-18T01:54:19;62.75;;;33.25;;
15516;SDS011;7860;52.030;5.572;2022-12-18T01:55:22;63.28;;;33.44;;
15516;SDS011;7860;52.030;5.572;2022-12-18T01:56:21;63.13;;;33.47;;
15516;SDS011;7860;52.030;5.572;2022-12-18T01:57:23;59.54;;;33.20;;
15516;SDS011;7860;52.030;5.572;2022-12-18T01:58:24;61.13;;;32.17;;
15516;SDS011;7860;52.030;5.572;2022-12-18T01:59:24;57.88;;;31.24;;
15516;SDS011;7860;52.030;5.572;2022-12-18T02:00:24;61.59;;;32.40;;
15516;SDS011;7860;52.030;5.572;2022-12-18T02:01:25;58.09;;;32.19;;
15516;SDS011;7860;52.030;5.572;2022-12-18T02:02:26;61.17;;;33.04;;
15516;SDS011;7860;52.030;5.572;2022-12-18T02:03:26;63.52;;;33.35;;
15516;SDS011;7860;52.030;5.572;2022-12-18T02:04:27;60.71;;;32.91;;
15516;SDS011;7860;52.030;5.572;2022-12-18T02:05:32;59.80;;;32.78;;
15516;SDS011;7860;52.030;5.572;2022-12-18T02:06:29;60.11;;;32.11;;
15516;SDS011;7860;52.030;5.572;2022-12-18T02:07:32;59.03;;;31.93;;
15516;SDS011;7860;52.030;5.572;2022-12-18T02:08:30;58.20;;;32.64;;
15516;SDS011;7860;52.030;5.572;2022-12-18T02:09:31;60.43;;;32.18;;
15516;SDS011;7860;52.030;5.572;2022-12-18T02:10:35;59.79;;;32.39;;
15516;SDS011;7860;52.030;5.572;2022-12-18T02:11:34;60.40;;;32.49;;
15516;SDS011;7860;52.030;5.572;2022-12-18T02:12:35;58.88;;;32.39;;
15516;SDS011;7860;52.030;5.572;2022-12-18T02:13:36;58.94;;;32.57;;
15516;SDS011;7860;52.030;5.572;2022-12-18T02:14:37;55.21;;;31.00;;
15516;SDS011;7860;52.030;5.572;2022-12-18T02:15:36;56.41;;;31.42;;
15516;SDS011;7860;52.030;5.572;2022-12-18T02:16:37;57.62;;;32.06;;
15516;SDS011;7860;52.030;5.572;2022-12-18T02:17:36;58.36;;;31.90;;
15516;SDS011;7860;52.030;5.572;2022-12-18T02:18:38;57.46;;;32.20;;
15516;SDS011;7860;52.030;5.572;2022-12-18T02:20:45;59.20;;;32.63;;
15516;SDS011;7860;52.030;5.572;2022-12-18T02:21:46;58.22;;;32.12;;
15516;SDS011;7860;52.030;5.572;2022-12-18T02:22:50;55.76;;;30.67;;
15516;SDS011;7860;52.030;5.572;2022-12-18T02:23:49;58.24;;;32.58;;
15516;SDS011;7860;52.030;5.572;2022-12-18T02:24:51;59.24;;;33.06;;
15516;SDS011;7860;52.030;5.572;2022-12-18T02:26:49;59.45;;;32.52;;
15516;SDS011;7860;52.030;5.572;2022-12-18T02:27:50;61.37;;;33.58;;
15516;SDS011;7860;52.030;5.572;2022-12-18T02:28:51;59.33;;;32.91;;
15516;SDS011;7860;52.030;5.572;2022-12-18T02:29:52;58.16;;;33.07;;
15516;SDS011;7860;52.030;5.572;2022-12-18T02:30:52;59.14;;;32.44;;
15516;SDS011;7860;52.030;5.572;2022-12-18T02:31:55;57.23;;;31.10;;
15516;SDS011;7860;52.030;5.572;2022-12-18T02:32:54;58.73;;;32.07;;
15516;SDS011;7860;52.030;5.572;2022-12-18T02:33:56;50.33;;;29.93;;
15516;SDS011;7860;52.030;5.572;2022-12-18T02:34:56;57.03;;;30.94;;
15516;SDS011;7860;52.030;5.572;2022-12-18T02:35:56;56.57;;;31.39;;
15516;SDS011;7860;52.030;5.572;2022-12-18T02:36:57;56.15;;;30.74;;
15516;SDS011;7860;52.030;5.572;2022-12-18T02:37:58;56.28;;;30.69;;
15516;SDS011;7860;52.030;5.572;2022-12-18T02:38:59;53.31;;;30.61;;
15516;SDS011;7860;52.030;5.572;2022-12-18T02:39:59;54.87;;;30.54;;
15516;SDS011;7860;52.030;5.572;2022-12-18T02:41:00;54.69;;;29.48;;
15516;SDS011;7860;52.030;5.572;2022-12-18T02:42:01;57.16;;;31.08;;
15516;SDS011;7860;52.030;5.572;2022-12-18T02:43:03;54.32;;;29.94;;
15516;SDS011;7860;52.030;5.572;2022-12-18T02:44:07;52.88;;;30.10;;
15516;SDS011;7860;52.030;5.572;2022-12-18T02:45:04;52.01;;;29.53;;
15516;SDS011;7860;52.030;5.572;2022-12-18T02:46:22;51.02;;;28.89;;
15516;SDS011;7860;52.030;5.572;2022-12-18T02:47:05;56.51;;;32.33;;
15516;SDS011;7860;52.030;5.572;2022-12-18T02:48:07;53.05;;;30.56;;
15516;SDS011;7860;52.030;5.572;2022-12-18T02:49:11;55.57;;;31.02;;
15516;SDS011;7860;52.030;5.572;2022-12-18T02:50:10;50.78;;;30.14;;
15516;SDS011;7860;52.030;5.572;2022-12-18T02:51:11;55.55;;;30.53;;
15516;SDS011;7860;52.030;5.572;2022-12-18T02:52:12;48.63;;;27.34;;
15516;SDS011;7860;52.030;5.572;2022-12-18T02:53:13;52.08;;;29.58;;
15516;SDS011;7860;52.030;5.572;2022-12-18T02:54:14;52.57;;;29.48;;
15516;SDS011;7860;52.030;5.572;2022-12-18T02:55:15;53.71;;;29.83;;
15516;SDS011;7860;52.030;5.572;2022-12-18T02:56:13;51.99;;;29.81;;
15516;SDS011;7860;52.030;5.572;2022-12-18T02:57:15;54.38;;;29.56;;
15516;SDS011;7860;52.030;5.572;2022-12-18T02:58:15;51.95;;;29.43;;
15516;SDS011;7860;52.030;5.572;2022-12-18T02:59:15;53.06;;;29.26;;
15516;SDS011;7860;52.030;5.572;2022-12-18T03:00:17;55.19;;;30.00;;
15516;SDS011;7860;52.030;5.572;2022-12-18T03:01:19;49.00;;;28.59;;
15516;SDS011;7860;52.030;5.572;2022-12-18T03:02:21;48.41;;;28.73;;
15516;SDS011;7860;52.030;5.572;2022-12-18T03:03:19;52.05;;;29.42;;
15516;SDS011;7860;52.030;5.572;2022-12-18T03:04:20;51.35;;;28.92;;
15516;SDS011;7860;52.030;5.572;2022-12-18T03:05:22;46.88;;;28.16;;
15516;SDS011;7860;52.030;5.572;2022-12-18T03:06:23;47.70;;;27.39;;
15516;SDS011;7860;52.030;5.572;2022-12-18T03:07:26;47.97;;;27.91;;
15516;SDS011;7860;52.030;5.572;2022-12-18T03:08:24;50.81;;;28.74;;
15516;SDS011;7860;52.030;5.572;2022-12-18T03:09:24;49.30;;;27.94;;
15516;SDS011;7860;52.030;5.572;2022-12-18T03:10:27;48.44;;;28.08;;
15516;SDS011;7860;52.030;5.572;2022-12-18T03:11:25;50.65;;;28.69;;
15516;SDS011;7860;52.030;5.572;2022-12-18T03:12:28;46.16;;;28.19;;
15516;SDS011;7860;52.030;5.572;2022-12-18T03:13:28;49.92;;;29.10;;
15516;SDS011;7860;52.030;5.572;2022-12-18T03:14:28;47.68;;;26.90;;
15516;SDS011;7860;52.030;5.572;2022-12-18T03:15:29;47.73;;;27.72;;
15516;SDS011;7860;52.030;5.572;2022-12-18T03:16:29;47.49;;;26.93;;
15516;SDS011;7860;52.030;5.572;2022-12-18T03:17:31;49.02;;;27.90;;
15516;SDS011;7860;52.030;5.572;2022-12-18T03:18:32;47.70;;;27.13;;
15516;SDS011;7860;52.030;5.572;2022-12-18T03:19:32;47.82;;;27.35;;
15516;SDS011;7860;52.030;5.572;2022-12-18T03:20:34;47.97;;;27.59;;
15516;SDS011;7860;52.030;5.572;2022-12-18T03:21:35;48.60;;;27.89;;
15516;SDS011;7860;52.030;5.572;2022-12-18T03:22:35;51.02;;;27.42;;
15516;SDS011;7860;52.030;5.572;2022-12-18T03:23:36;46.52;;;27.71;;
15516;SDS011;7860;52.030;5.572;2022-12-18T03:24:36;45.26;;;26.74;;
15516;SDS011;7860;52.030;5.572;2022-12-18T03:25:37;46.78;;;28.06;;
15516;SDS011;7860;52.030;5.572;2022-12-18T03:26:37;49.58;;;27.09;;
15516;SDS011;7860;52.030;5.572;2022-12-18T03:27:38;44.81;;;26.28;;
15516;SDS011;7860;52.030;5.572;2022-12-18T03:28:40;43.54;;;26.66;;
15516;SDS011;7860;52.030;5.572;2022-12-18T03:29:40;44.77;;;27.18;;
15516;SDS011;7860;52.030;5.572;2022-12-18T03:30:41;45.54;;;25.72;;
15516;SDS011;7860;52.030;5.572;2022-12-18T03:31:41;46.60;;;26.20;;
15516;SDS011;7860;52.030;5.572;2022-12-18T03:32:42;43.82;;;26.73;;
15516;SDS011;7860;52.030;5.572;2022-12-18T03:33:43;44.72;;;26.50;;
15516;SDS011;7860;52.030;5.572;2022-12-18T03:34:43;42.42;;;25.16;;
15516;SDS011;7860;52.030;5.572;2022-12-18T03:35:43;45.02;;;26.59;;
15516;SDS011;7860;52.030;5.572;2022-12-18T03:36:44;45.10;;;25.97;;
15516;SDS011;7860;52.030;5.572;2022-12-18T03:37:45;43.39;;;25.82;;
15516;SDS011;7860;52.030;5.572;2022-12-18T03:38:45;44.24;;;26.52;;
15516;SDS011;7860;52.030;5.572;2022-12-18T03:39:46;43.78;;;26.54;;
15516;SDS011;7860;52.030;5.572;2022-12-18T03:40:51;43.72;;;25.88;;
15516;SDS011;7860;52.030;5.572;2022-12-18T03:41:49;43.88;;;25.90;;
15516;SDS011;7860;52.030;5.572;2022-12-18T03:42:49;49.67;;;27.61;;
15516;SDS011;7860;52.030;5.572;2022-12-18T03:43:50;43.54;;;25.26;;
15516;SDS011;7860;52.030;5.572;2022-12-18T03:44:54;41.12;;;24.16;;
15516;SDS011;7860;52.030;5.572;2022-12-18T03:45:52;42.38;;;24.74;;
15516;SDS011;7860;52.030;5.572;2022-12-18T03:46:54;41.68;;;24.69;;
15516;SDS011;7860;52.030;5.572;2022-12-18T03:47:55;41.40;;;25.18;;
15516;SDS011;7860;52.030;5.572;2022-12-18T03:48:55;41.03;;;25.22;;
15516;SDS011;7860;52.030;5.572;2022-12-18T03:49:56;44.12;;;25.00;;
15516;SDS011;7860;52.030;5.572;2022-12-18T03:50:56;40.70;;;24.69;;
15516;SDS011;7860;52.030;5.572;2022-12-18T03:51:57;41.30;;;24.11;;
15516;SDS011;7860;52.030;5.572;2022-12-18T03:52:57;41.69;;;24.45;;
15516;SDS011;7860;52.030;5.572;2022-12-18T03:53:57;43.11;;;24.25;;
15516;SDS011;7860;52.030;5.572;2022-12-18T03:54:57;42.05;;;24.52;;
15516;SDS011;7860;52.030;5.572;2022-12-18T03:55:58;44.87;;;25.61;;
15516;SDS011;7860;52.030;5.572;2022-12-18T03:57:01;45.03;;;25.26;;
15516;SDS011;7860;52.030;5.572;2022-12-18T03:58:00;42.49;;;24.76;;
15516;SDS011;7860;52.030;5.572;2022-12-18T03:59:01;44.08;;;25.15;;
15516;SDS011;7860;52.030;5.572;2022-12-18T04:00:06;43.11;;;25.14;;
15516;SDS011;7860;52.030;5.572;2022-12-18T04:01:02;42.70;;;24.93;;
15516;SDS011;7860;52.030;5.572;2022-12-18T04:02:02;40.62;;;24.57;;
15516;SDS011;7860;52.030;5.572;2022-12-18T04:03:03;43.63;;;25.21;;
15516;SDS011;7860;52.030;5.572;2022-12-18T04:04:04;40.59;;;24.12;;
15516;SDS011;7860;52.030;5.572;2022-12-18T04:05:05;40.92;;;24.58;;
15516;SDS011;7860;52.030;5.572;2022-12-18T04:06:06;43.41;;;24.76;;
15516;SDS011;7860;52.030;5.572;2022-12-18T04:07:06;42.52;;;24.96;;
15516;SDS011;7860;52.030;5.572;2022-12-18T04:08:07;41.62;;;24.20;;
15516;SDS011;7860;52.030;5.572;2022-12-18T04:09:09;40.24;;;23.78;;
15516;SDS011;7860;52.030;5.572;2022-12-18T04:10:13;41.03;;;24.43;;
15516;SDS011;7860;52.030;5.572;2022-12-18T04:11:10;41.64;;;24.37;;
15516;SDS011;7860;52.030;5.572;2022-12-18T04:12:11;40.29;;;23.98;;
15516;SDS011;7860;52.030;5.572;2022-12-18T04:13:12;40.27;;;24.18;;
15516;SDS011;7860;52.030;5.572;2022-12-18T04:14:14;41.21;;;24.04;;
15516;SDS011;7860;52.030;5.572;2022-12-18T04:15:14;39.38;;;23.41;;
15516;SDS011;7860;52.030;5.572;2022-12-18T04:16:14;39.41;;;24.05;;
15516;SDS011;7860;52.030;5.572;2022-12-18T04:17:15;40.90;;;23.49;;
15516;SDS011;7860;52.030;5.572;2022-12-18T04:18:16;38.35;;;23.88;;
15516;SDS011;7860;52.030;5.572;2022-12-18T04:19:17;38.87;;;24.07;;
15516;SDS011;7860;52.030;5.572;2022-12-18T04:20:21;39.92;;;23.52;;
15516;SDS011;7860;52.030;5.572;2022-12-18T04:21:19;38.96;;;23.56;;
15516;SDS011;7860;52.030;5.572;2022-12-18T04:22:20;39.06;;;23.44;;
15516;SDS011;7860;52.030;5.572;2022-12-18T04:23:21;39.43;;;23.60;;
15516;SDS011;7860;52.030;5.572;2022-12-18T04:24:22;42.10;;;24.75;;
15516;SDS011;7860;52.030;5.572;2022-12-18T04:25:22;39.71;;;23.03;;
15516;SDS011;7860;52.030;5.572;2022-12-18T04:26:22;37.04;;;22.35;;
15516;SDS011;7860;52.030;5.572;2022-12-18T04:27:23;40.67;;;23.72;;
15516;SDS011;7860;52.030;5.572;2022-12-18T04:28:24;39.78;;;22.95;;
15516;SDS011;7860;52.030;5.572;2022-12-18T04:29:25;40.10;;;23.73;;
15516;SDS011;7860;52.030;5.572;2022-12-18T04:30:26;40.26;;;23.27;;
15516;SDS011;7860;52.030;5.572;2022-12-18T04:31:27;38.62;;;23.22;;
15516;SDS011;7860;52.030;5.572;2022-12-18T04:32:27;40.18;;;23.84;;
15516;SDS011;7860;52.030;5.572;2022-12-18T04:33:28;40.86;;;23.69;;
15516;SDS011;7860;52.030;5.572;2022-12-18T04:34:29;41.26;;;23.63;;
15516;SDS011;7860;52.030;5.572;2022-12-18T04:35:30;40.00;;;23.15;;
15516;SDS011;7860;52.030;5.572;2022-12-18T04:36:31;38.55;;;22.97;;
15516;SDS011;7860;52.030;5.572;2022-12-18T04:37:32;39.37;;;23.38;;
15516;SDS011;7860;52.030;5.572;2022-12-18T04:38:33;36.86;;;22.47;;
15516;SDS011;7860;52.030;5.572;2022-12-18T04:39:34;40.86;;;22.71;;
15516;SDS011;7860;52.030;5.572;2022-12-18T04:40:35;38.25;;;22.28;;
15516;SDS011;7860;52.030;5.572;2022-12-18T04:41:35;37.19;;;21.98;;
15516;SDS011;7860;52.030;5.572;2022-12-18T04:42:36;37.21;;;22.16;;
15516;SDS011;7860;52.030;5.572;2022-12-18T04:43:37;39.32;;;22.64;;
15516;SDS011;7860;52.030;5.572;2022-12-18T04:44:38;41.02;;;22.23;;
15516;SDS011;7860;52.030;5.572;2022-12-18T04:45:39;39.54;;;22.40;;
15516;SDS011;7860;52.030;5.572;2022-12-18T04:46:40;39.13;;;23.04;;
15516;SDS011;7860;52.030;5.572;2022-12-18T04:47:41;37.71;;;22.27;;
15516;SDS011;7860;52.030;5.572;2022-12-18T04:48:42;38.35;;;22.58;;
15516;SDS011;7860;52.030;5.572;2022-12-18T04:49:43;34.11;;;20.96;;
15516;SDS011;7860;52.030;5.572;2022-12-18T04:50:43;35.51;;;20.89;;
15516;SDS011;7860;52.030;5.572;2022-12-18T04:51:44;37.13;;;22.48;;
15516;SDS011;7860;52.030;5.572;2022-12-18T04:52:45;37.74;;;20.95;;
15516;SDS011;7860;52.030;5.572;2022-12-18T04:53:46;34.51;;;21.34;;
15516;SDS011;7860;52.030;5.572;2022-12-18T04:54:47;33.43;;;20.25;;
15516;SDS011;7860;52.030;5.572;2022-12-18T04:55:48;35.62;;;20.79;;
15516;SDS011;7860;52.030;5.572;2022-12-18T04:56:49;34.81;;;21.05;;
15516;SDS011;7860;52.030;5.572;2022-12-18T04:57:49;35.26;;;20.54;;
15516;SDS011;7860;52.030;5.572;2022-12-18T04:58:50;34.85;;;20.98;;
15516;SDS011;7860;52.030;5.572;2022-12-18T04:59:50;35.89;;;20.72;;
15516;SDS011;7860;52.030;5.572;2022-12-18T05:00:51;36.03;;;20.84;;
15516;SDS011;7860;52.030;5.572;2022-12-18T05:01:52;36.86;;;21.47;;
15516;SDS011;7860;52.030;5.572;2022-12-18T05:02:53;34.51;;;20.38;;
15516;SDS011;7860;52.030;5.572;2022-12-18T05:03:53;35.62;;;20.87;;
15516;SDS011;7860;52.030;5.572;2022-12-18T05:04:54;35.01;;;20.83;;
15516;SDS011;7860;52.030;5.572;2022-12-18T05:05:55;35.79;;;21.17;;
15516;SDS011;7860;52.030;5.572;2022-12-18T05:06:55;32.58;;;20.19;;
15516;SDS011;7860;52.030;5.572;2022-12-18T05:07:56;31.70;;;19.90;;
15516;SDS011;7860;52.030;5.572;2022-12-18T05:08:57;33.01;;;20.34;;
15516;SDS011;7860;52.030;5.572;2022-12-18T05:09:58;33.07;;;19.74;;
15516;SDS011;7860;52.030;5.572;2022-12-18T05:10:59;32.46;;;19.78;;
15516;SDS011;7860;52.030;5.572;2022-12-18T05:12:00;34.80;;;20.64;;
15516;SDS011;7860;52.030;5.572;2022-12-18T05:13:01;34.24;;;21.29;;
15516;SDS011;7860;52.030;5.572;2022-12-18T05:14:02;31.30;;;19.58;;
15516;SDS011;7860;52.030;5.572;2022-12-18T05:15:03;32.39;;;19.74;;
15516;SDS011;7860;52.030;5.572;2022-12-18T05:16:04;33.26;;;20.41;;
15516;SDS011;7860;52.030;5.572;2022-12-18T05:17:04;32.35;;;19.67;;
15516;SDS011;7860;52.030;5.572;2022-12-18T05:18:05;33.99;;;19.96;;
15516;SDS011;7860;52.030;5.572;2022-12-18T05:19:06;32.57;;;20.64;;
15516;SDS011;7860;52.030;5.572;2022-12-18T05:20:07;38.15;;;21.42;;
15516;SDS011;7860;52.030;5.572;2022-12-18T05:21:08;35.25;;;20.57;;
15516;SDS011;7860;52.030;5.572;2022-12-18T05:22:09;35.55;;;20.90;;
15516;SDS011;7860;52.030;5.572;2022-12-18T05:23:10;32.46;;;19.56;;
15516;SDS011;7860;52.030;5.572;2022-12-18T05:24:11;33.96;;;20.35;;
15516;SDS011;7860;52.030;5.572;2022-12-18T05:25:11;34.63;;;20.00;;
15516;SDS011;7860;52.030;5.572;2022-12-18T05:26:14;33.08;;;19.84;;
15516;SDS011;7860;52.030;5.572;2022-12-18T05:27:13;34.45;;;20.54;;
15516;SDS011;7860;52.030;5.572;2022-12-18T05:28:14;32.43;;;19.68;;
15516;SDS011;7860;52.030;5.572;2022-12-18T05:29:15;32.36;;;19.34;;
15516;SDS011;7860;52.030;5.572;2022-12-18T05:30:15;32.78;;;20.02;;
15516;SDS011;7860;52.030;5.572;2022-12-18T05:31:16;32.13;;;19.92;;
15516;SDS011;7860;52.030;5.572;2022-12-18T05:32:17;32.46;;;20.31;;
15516;SDS011;7860;52.030;5.572;2022-12-18T05:33:18;37.82;;;21.63;;
15516;SDS011;7860;52.030;5.572;2022-12-18T05:34:18;35.25;;;21.10;;
15516;SDS011;7860;52.030;5.572;2022-12-18T05:35:19;34.37;;;20.41;;
15516;SDS011;7860;52.030;5.572;2022-12-18T05:36:20;33.13;;;20.15;;
15516;SDS011;7860;52.030;5.572;2022-12-18T05:37:21;34.44;;;21.07;;
15516;SDS011;7860;52.030;5.572;2022-12-18T05:38:22;33.29;;;19.99;;
15516;SDS011;7860;52.030;5.572;2022-12-18T05:39:23;33.67;;;20.04;;
15516;SDS011;7860;52.030;5.572;2022-12-18T05:40:24;33.43;;;19.94;;
15516;SDS011;7860;52.030;5.572;2022-12-18T05:41:25;33.38;;;20.26;;
15516;SDS011;7860;52.030;5.572;2022-12-18T05:42:25;30.71;;;18.63;;
15516;SDS011;7860;52.030;5.572;2022-12-18T05:43:26;34.58;;;20.16;;
15516;SDS011;7860;52.030;5.572;2022-12-18T05:44:27;34.49;;;20.29;;
15516;SDS011;7860;52.030;5.572;2022-12-18T05:45:28;32.91;;;19.18;;
15516;SDS011;7860;52.030;5.572;2022-12-18T05:46:29;31.32;;;19.14;;
15516;SDS011;7860;52.030;5.572;2022-12-18T05:47:30;31.19;;;20.03;;
15516;SDS011;7860;52.030;5.572;2022-12-18T05:48:31;33.13;;;20.16;;
15516;SDS011;7860;52.030;5.572;2022-12-18T05:49:32;35.08;;;20.67;;
15516;SDS011;7860;52.030;5.572;2022-12-18T05:50:33;33.79;;;20.72;;
15516;SDS011;7860;52.030;5.572;2022-12-18T05:51:33;31.03;;;19.79;;
15516;SDS011;7860;52.030;5.572;2022-12-18T05:52:34;31.21;;;19.10;;
15516;SDS011;7860;52.030;5.572;2022-12-18T05:53:34;32.52;;;20.24;;
15516;SDS011;7860;52.030;5.572;2022-12-18T05:54:35;34.74;;;19.93;;
15516;SDS011;7860;52.030;5.572;2022-12-18T05:55:35;35.50;;;20.57;;
15516;SDS011;7860;52.030;5.572;2022-12-18T05:56:36;36.12;;;21.31;;
15516;SDS011;7860;52.030;5.572;2022-12-18T05:57:37;38.35;;;20.80;;
15516;SDS011;7860;52.030;5.572;2022-12-18T05:58:37;35.97;;;20.31;;
15516;SDS011;7860;52.030;5.572;2022-12-18T05:59:37;33.25;;;19.89;;
15516;SDS011;7860;52.030;5.572;2022-12-18T06:00:41;31.99;;;18.94;;
15516;SDS011;7860;52.030;5.572;2022-12-18T06:01:39;29.61;;;18.45;;
15516;SDS011;7860;52.030;5.572;2022-12-18T06:02:40;32.78;;;19.22;;